sensor_id;sensor_type;location;lat;lon;timestamp;P1;durP1;ratioP1;P2;durP2;ratioP2
52316;SDS011;38725;41.994;21.458;2022-07-29T00:00:42;14.80;;;10.30;;
52316;SDS011;38725;41.994;21.458;2022-07-29T00:03:12;11.77;;;9.75;;
52316;SDS011;38725;41.994;21.458;2022-07-29T00:05:41;16.42;;;9.68;;
52316;SDS011;38725;41.994;21.458;2022-07-29T00:08:08;13.18;;;9.75;;
52316;SDS011;38725;41.994;21.458;2022-07-29T00:10:34;14.40;;;9.43;;
52316;SDS011;38725;41.994;21.458;2022-07-29T00:13:01;14.05;;;9.40;;
52316;SDS011;38725;41.994;21.458;2022-07-29T00:15:27;13.45;;;9.68;;
52316;SDS011;38725;41.994;21.458;2022-07-29T00:17:53;13.43;;;9.27;;
52316;SDS011;38725;41.994;21.458;2022-07-29T00:20:19;13.40;;;9.65;;
52316;SDS011;38725;41.994;21.458;2022-07-29T00:22:45;14.02;;;10.25;;
52316;SDS011;38725;41.994;21.458;2022-07-29T00:25:12;12.65;;;9.52;;
52316;SDS011;38725;41.994;21.458;2022-07-29T00:27:38;13.63;;;9.77;;
52316;SDS011;38725;41.994;21.458;2022-07-29T00:30:04;12.45;;;9.18;;
52316;SDS011;38725;41.994;21.458;2022-07-29T00:32:31;13.80;;;9.38;;
52316;SDS011;38725;41.994;21.458;2022-07-29T00:34:57;12.82;;;9.75;;
52316;SDS011;38725;41.994;21.458;2022-07-29T00:37:42;14.02;;;10.35;;
52316;SDS011;38725;41.994;21.458;2022-07-29T00:40:08;12.73;;;9.80;;
52316;SDS011;38725;41.994;21.458;2022-07-29T00:45:09;14.18;;;10.13;;
52316;SDS011;38725;41.994;21.458;2022-07-29T00:47:36;14.98;;;9.68;;
52316;SDS011;38725;41.994;21.458;2022-07-29T00:50:03;14.80;;;10.00;;
52316;SDS011;38725;41.994;21.458;2022-07-29T00:52:29;13.23;;;10.07;;
52316;SDS011;38725;41.994;21.458;2022-07-29T00:54:55;17.48;;;10.60;;
52316;SDS011;38725;41.994;21.458;2022-07-29T00:57:22;15.38;;;10.90;;
52316;SDS011;38725;41.994;21.458;2022-07-29T00:59:48;20.27;;;11.30;;
52316;SDS011;38725;41.994;21.458;2022-07-29T01:02:14;17.38;;;11.52;;
52316;SDS011;38725;41.994;21.458;2022-07-29T01:04:40;19.45;;;13.52;;
52316;SDS011;38725;41.994;21.458;2022-07-29T01:07:07;22.00;;;13.95;;
52316;SDS011;38725;41.994;21.458;2022-07-29T01:09:34;20.75;;;13.25;;
52316;SDS011;38725;41.994;21.458;2022-07-29T01:12:01;18.63;;;12.48;;
52316;SDS011;38725;41.994;21.458;2022-07-29T01:14:27;16.20;;;10.75;;
52316;SDS011;38725;41.994;21.458;2022-07-29T01:22:17;17.27;;;10.88;;
52316;SDS011;38725;41.994;21.458;2022-07-29T01:27:36;17.08;;;10.38;;
52316;SDS011;38725;41.994;21.458;2022-07-29T01:30:04;15.73;;;10.20;;
52316;SDS011;38725;41.994;21.458;2022-07-29T01:32:35;15.15;;;11.00;;
52316;SDS011;38725;41.994;21.458;2022-07-29T01:35:08;14.73;;;10.02;;
52316;SDS011;38725;41.994;21.458;2022-07-29T01:37:46;15.10;;;10.57;;
52316;SDS011;38725;41.994;21.458;2022-07-29T01:42:43;13.85;;;9.88;;
52316;SDS011;38725;41.994;21.458;2022-07-29T01:48:00;18.15;;;12.07;;
52316;SDS011;38725;41.994;21.458;2022-07-29T01:50:37;16.08;;;9.85;;
52316;SDS011;38725;41.994;21.458;2022-07-29T01:53:07;14.35;;;9.77;;
52316;SDS011;38725;41.994;21.458;2022-07-29T01:55:44;13.38;;;9.13;;
52316;SDS011;38725;41.994;21.458;2022-07-29T01:58:11;16.15;;;10.32;;
52316;SDS011;38725;41.994;21.458;2022-07-29T02:00:39;16.23;;;10.35;;
52316;SDS011;38725;41.994;21.458;2022-07-29T02:03:07;12.90;;;9.70;;
52316;SDS011;38725;41.994;21.458;2022-07-29T02:05:35;13.63;;;9.77;;
52316;SDS011;38725;41.994;21.458;2022-07-29T02:08:01;14.80;;;9.73;;
52316;SDS011;38725;41.994;21.458;2022-07-29T02:10:29;19.10;;;10.80;;
52316;SDS011;38725;41.994;21.458;2022-07-29T02:12:57;15.38;;;9.57;;
52316;SDS011;38725;41.994;21.458;2022-07-29T02:15:24;15.82;;;10.00;;
52316;SDS011;38725;41.994;21.458;2022-07-29T02:18:01;17.15;;;9.98;;
52316;SDS011;38725;41.994;21.458;2022-07-29T02:20:28;24.85;;;10.32;;
52316;SDS011;38725;41.994;21.458;2022-07-29T02:22:54;15.02;;;9.88;;
52316;SDS011;38725;41.994;21.458;2022-07-29T02:25:21;13.82;;;9.40;;
52316;SDS011;38725;41.994;21.458;2022-07-29T02:27:50;16.05;;;9.45;;
52316;SDS011;38725;41.994;21.458;2022-07-29T02:30:17;14.98;;;10.32;;
52316;SDS011;38725;41.994;21.458;2022-07-29T02:32:43;17.30;;;9.48;;
52316;SDS011;38725;41.994;21.458;2022-07-29T02:35:11;13.90;;;10.32;;
52316;SDS011;38725;41.994;21.458;2022-07-29T02:37:38;15.45;;;10.07;;
52316;SDS011;38725;41.994;21.458;2022-07-29T02:40:05;15.07;;;10.20;;
52316;SDS011;38725;41.994;21.458;2022-07-29T02:42:34;13.85;;;9.95;;
52316;SDS011;38725;41.994;21.458;2022-07-29T02:45:02;12.27;;;9.02;;
52316;SDS011;38725;41.994;21.458;2022-07-29T02:50:05;11.70;;;9.45;;
52316;SDS011;38725;41.994;21.458;2022-07-29T02:57:36;14.77;;;9.40;;
52316;SDS011;38725;41.994;21.458;2022-07-29T03:00:06;12.23;;;8.68;;
52316;SDS011;38725;41.994;21.458;2022-07-29T03:02:34;11.25;;;8.77;;
52316;SDS011;38725;41.994;21.458;2022-07-29T03:05:01;16.60;;;9.43;;
52316;SDS011;38725;41.994;21.458;2022-07-29T03:07:28;12.40;;;9.45;;
52316;SDS011;38725;41.994;21.458;2022-07-29T03:09:55;14.40;;;9.30;;
52316;SDS011;38725;41.994;21.458;2022-07-29T03:12:22;11.90;;;8.88;;
52316;SDS011;38725;41.994;21.458;2022-07-29T03:14:49;12.15;;;8.88;;
52316;SDS011;38725;41.994;21.458;2022-07-29T03:17:15;13.80;;;8.93;;
52316;SDS011;38725;41.994;21.458;2022-07-29T03:19:41;12.73;;;8.35;;
52316;SDS011;38725;41.994;21.458;2022-07-29T03:22:08;13.80;;;9.75;;
52316;SDS011;38725;41.994;21.458;2022-07-29T03:24:35;12.98;;;9.02;;
52316;SDS011;38725;41.994;21.458;2022-07-29T03:27:02;14.48;;;9.45;;
52316;SDS011;38725;41.994;21.458;2022-07-29T03:29:29;13.18;;;8.70;;
52316;SDS011;38725;41.994;21.458;2022-07-29T03:31:55;14.15;;;9.30;;
52316;SDS011;38725;41.994;21.458;2022-07-29T03:34:21;17.77;;;9.15;;
52316;SDS011;38725;41.994;21.458;2022-07-29T03:36:48;15.10;;;9.10;;
52316;SDS011;38725;41.994;21.458;2022-07-29T03:39:21;12.60;;;9.57;;
52316;SDS011;38725;41.994;21.458;2022-07-29T03:41:48;13.25;;;9.90;;
52316;SDS011;38725;41.994;21.458;2022-07-29T03:44:15;13.02;;;8.45;;
52316;SDS011;38725;41.994;21.458;2022-07-29T03:46:42;12.32;;;9.50;;
52316;SDS011;38725;41.994;21.458;2022-07-29T03:49:09;13.00;;;9.82;;
52316;SDS011;38725;41.994;21.458;2022-07-29T03:51:36;13.88;;;9.52;;
52316;SDS011;38725;41.994;21.458;2022-07-29T03:54:02;13.70;;;9.77;;
52316;SDS011;38725;41.994;21.458;2022-07-29T03:56:29;13.93;;;9.65;;
52316;SDS011;38725;41.994;21.458;2022-07-29T03:58:58;14.75;;;10.13;;
52316;SDS011;38725;41.994;21.458;2022-07-29T04:01:24;12.02;;;9.40;;
52316;SDS011;38725;41.994;21.458;2022-07-29T04:03:51;12.32;;;9.02;;
52316;SDS011;38725;41.994;21.458;2022-07-29T04:06:17;13.23;;;9.32;;
52316;SDS011;38725;41.994;21.458;2022-07-29T04:08:43;18.60;;;9.75;;
52316;SDS011;38725;41.994;21.458;2022-07-29T04:11:09;13.88;;;8.45;;
52316;SDS011;38725;41.994;21.458;2022-07-29T04:13:35;14.85;;;9.52;;
52316;SDS011;38725;41.994;21.458;2022-07-29T04:16:02;12.88;;;8.95;;
52316;SDS011;38725;41.994;21.458;2022-07-29T04:18:28;13.32;;;9.25;;
52316;SDS011;38725;41.994;21.458;2022-07-29T04:20:54;16.83;;;9.60;;
52316;SDS011;38725;41.994;21.458;2022-07-29T04:23:20;15.73;;;10.90;;
52316;SDS011;38725;41.994;21.458;2022-07-29T04:25:46;15.98;;;10.73;;
52316;SDS011;38725;41.994;21.458;2022-07-29T04:28:12;14.15;;;9.40;;
52316;SDS011;38725;41.994;21.458;2022-07-29T04:30:38;12.63;;;9.38;;
52316;SDS011;38725;41.994;21.458;2022-07-29T04:33:06;11.32;;;8.82;;
52316;SDS011;38725;41.994;21.458;2022-07-29T04:35:36;15.40;;;9.35;;
52316;SDS011;38725;41.994;21.458;2022-07-29T04:38:03;14.00;;;9.40;;
52316;SDS011;38725;41.994;21.458;2022-07-29T04:40:29;15.95;;;9.85;;
52316;SDS011;38725;41.994;21.458;2022-07-29T04:42:56;11.90;;;8.38;;
52316;SDS011;38725;41.994;21.458;2022-07-29T04:45:22;13.77;;;8.20;;
52316;SDS011;38725;41.994;21.458;2022-07-29T04:47:48;13.05;;;8.70;;
52316;SDS011;38725;41.994;21.458;2022-07-29T04:50:14;14.40;;;9.05;;
52316;SDS011;38725;41.994;21.458;2022-07-29T04:52:40;18.58;;;9.85;;
52316;SDS011;38725;41.994;21.458;2022-07-29T04:55:06;14.18;;;9.57;;
52316;SDS011;38725;41.994;21.458;2022-07-29T04:57:33;14.73;;;10.30;;
52316;SDS011;38725;41.994;21.458;2022-07-29T04:59:59;14.20;;;10.10;;
52316;SDS011;38725;41.994;21.458;2022-07-29T05:02:26;13.88;;;9.15;;
52316;SDS011;38725;41.994;21.458;2022-07-29T05:04:52;15.68;;;8.60;;
52316;SDS011;38725;41.994;21.458;2022-07-29T05:07:18;13.88;;;9.57;;
52316;SDS011;38725;41.994;21.458;2022-07-29T05:09:44;13.85;;;9.60;;
52316;SDS011;38725;41.994;21.458;2022-07-29T05:12:10;14.05;;;9.65;;
52316;SDS011;38725;41.994;21.458;2022-07-29T05:14:37;14.13;;;9.80;;
52316;SDS011;38725;41.994;21.458;2022-07-29T05:17:03;15.57;;;9.90;;
52316;SDS011;38725;41.994;21.458;2022-07-29T05:19:29;14.93;;;9.30;;
52316;SDS011;38725;41.994;21.458;2022-07-29T05:21:55;16.00;;;10.43;;
52316;SDS011;38725;41.994;21.458;2022-07-29T05:24:21;14.52;;;9.70;;
52316;SDS011;38725;41.994;21.458;2022-07-29T05:26:47;14.40;;;9.43;;
52316;SDS011;38725;41.994;21.458;2022-07-29T05:29:13;10.50;;;8.27;;
52316;SDS011;38725;41.994;21.458;2022-07-29T05:31:39;12.95;;;9.32;;
52316;SDS011;38725;41.994;21.458;2022-07-29T05:34:05;15.65;;;9.35;;
52316;SDS011;38725;41.994;21.458;2022-07-29T05:36:31;17.27;;;9.77;;
52316;SDS011;38725;41.994;21.458;2022-07-29T05:38:58;13.88;;;9.55;;
52316;SDS011;38725;41.994;21.458;2022-07-29T05:41:24;11.65;;;8.70;;
52316;SDS011;38725;41.994;21.458;2022-07-29T05:43:50;13.23;;;9.25;;
52316;SDS011;38725;41.994;21.458;2022-07-29T05:46:16;11.85;;;9.15;;
52316;SDS011;38725;41.994;21.458;2022-07-29T05:48:43;13.02;;;9.32;;
52316;SDS011;38725;41.994;21.458;2022-07-29T05:51:09;17.05;;;9.27;;
52316;SDS011;38725;41.994;21.458;2022-07-29T05:53:35;16.25;;;8.68;;
52316;SDS011;38725;41.994;21.458;2022-07-29T05:56:05;13.00;;;9.65;;
52316;SDS011;38725;41.994;21.458;2022-07-29T05:58:32;12.60;;;9.00;;
52316;SDS011;38725;41.994;21.458;2022-07-29T06:00:58;11.57;;;9.00;;
52316;SDS011;38725;41.994;21.458;2022-07-29T06:03:25;11.30;;;8.68;;
52316;SDS011;38725;41.994;21.458;2022-07-29T06:05:51;15.40;;;9.68;;
52316;SDS011;38725;41.994;21.458;2022-07-29T06:08:17;14.18;;;8.73;;
52316;SDS011;38725;41.994;21.458;2022-07-29T06:10:44;13.90;;;8.80;;
52316;SDS011;38725;41.994;21.458;2022-07-29T06:13:11;12.93;;;9.07;;
52316;SDS011;38725;41.994;21.458;2022-07-29T06:15:37;12.82;;;9.43;;
52316;SDS011;38725;41.994;21.458;2022-07-29T06:18:03;13.48;;;9.60;;
52316;SDS011;38725;41.994;21.458;2022-07-29T06:20:33;15.80;;;9.93;;
52316;SDS011;38725;41.994;21.458;2022-07-29T06:23:00;12.77;;;9.80;;
52316;SDS011;38725;41.994;21.458;2022-07-29T06:25:29;14.02;;;9.32;;
52316;SDS011;38725;41.994;21.458;2022-07-29T06:27:56;14.07;;;9.55;;
52316;SDS011;38725;41.994;21.458;2022-07-29T06:30:22;13.68;;;9.48;;
52316;SDS011;38725;41.994;21.458;2022-07-29T06:32:48;13.38;;;9.27;;
52316;SDS011;38725;41.994;21.458;2022-07-29T06:35:14;14.35;;;9.40;;
52316;SDS011;38725;41.994;21.458;2022-07-29T06:37:40;15.65;;;9.95;;
52316;SDS011;38725;41.994;21.458;2022-07-29T06:40:07;15.10;;;10.27;;
52316;SDS011;38725;41.994;21.458;2022-07-29T06:45:17;10.55;;;8.07;;
52316;SDS011;38725;41.994;21.458;2022-07-29T06:47:43;13.13;;;8.52;;
52316;SDS011;38725;41.994;21.458;2022-07-29T06:50:10;11.55;;;8.32;;
52316;SDS011;38725;41.994;21.458;2022-07-29T06:52:39;10.82;;;7.80;;
52316;SDS011;38725;41.994;21.458;2022-07-29T06:55:06;11.43;;;7.45;;
52316;SDS011;38725;41.994;21.458;2022-07-29T06:57:32;11.75;;;8.15;;
52316;SDS011;38725;41.994;21.458;2022-07-29T06:59:58;12.18;;;8.45;;
52316;SDS011;38725;41.994;21.458;2022-07-29T07:02:24;13.23;;;8.25;;
52316;SDS011;38725;41.994;21.458;2022-07-29T07:04:50;9.30;;;7.05;;
52316;SDS011;38725;41.994;21.458;2022-07-29T07:07:17;10.35;;;7.53;;
52316;SDS011;38725;41.994;21.458;2022-07-29T07:09:43;10.13;;;7.18;;
52316;SDS011;38725;41.994;21.458;2022-07-29T07:12:09;9.63;;;7.47;;
52316;SDS011;38725;41.994;21.458;2022-07-29T07:14:35;10.13;;;6.93;;
52316;SDS011;38725;41.994;21.458;2022-07-29T07:17:01;9.73;;;7.47;;
52316;SDS011;38725;41.994;21.458;2022-07-29T07:19:28;11.63;;;7.90;;
52316;SDS011;38725;41.994;21.458;2022-07-29T07:21:55;13.95;;;7.45;;
52316;SDS011;38725;41.994;21.458;2022-07-29T07:24:21;10.25;;;7.25;;
52316;SDS011;38725;41.994;21.458;2022-07-29T07:26:47;7.30;;;6.45;;
52316;SDS011;38725;41.994;21.458;2022-07-29T07:29:13;10.32;;;6.47;;
52316;SDS011;38725;41.994;21.458;2022-07-29T07:31:39;11.10;;;6.97;;
52316;SDS011;38725;41.994;21.458;2022-07-29T07:34:05;11.55;;;7.50;;
52316;SDS011;38725;41.994;21.458;2022-07-29T07:36:32;9.50;;;6.47;;
52316;SDS011;38725;41.994;21.458;2022-07-29T07:38:58;7.85;;;6.35;;
52316;SDS011;38725;41.994;21.458;2022-07-29T07:41:24;13.90;;;7.63;;
52316;SDS011;38725;41.994;21.458;2022-07-29T07:43:50;8.63;;;6.85;;
52316;SDS011;38725;41.994;21.458;2022-07-29T07:46:16;11.00;;;7.50;;
52316;SDS011;38725;41.994;21.458;2022-07-29T07:48:42;11.73;;;7.13;;
52316;SDS011;38725;41.994;21.458;2022-07-29T07:51:09;12.00;;;7.30;;
52316;SDS011;38725;41.994;21.458;2022-07-29T07:53:35;10.52;;;7.80;;
52316;SDS011;38725;41.994;21.458;2022-07-29T07:56:01;10.30;;;7.10;;
52316;SDS011;38725;41.994;21.458;2022-07-29T07:58:29;12.38;;;8.20;;
52316;SDS011;38725;41.994;21.458;2022-07-29T08:00:55;10.93;;;7.45;;
52316;SDS011;38725;41.994;21.458;2022-07-29T08:03:21;20.20;;;7.38;;
52316;SDS011;38725;41.994;21.458;2022-07-29T08:05:47;11.40;;;6.88;;
52316;SDS011;38725;41.994;21.458;2022-07-29T08:08:15;27.83;;;12.75;;
52316;SDS011;38725;41.994;21.458;2022-07-29T08:10:41;10.43;;;7.45;;
52316;SDS011;38725;41.994;21.458;2022-07-29T08:13:17;9.40;;;7.22;;
52316;SDS011;38725;41.994;21.458;2022-07-29T08:15:43;11.02;;;6.82;;
52316;SDS011;38725;41.994;21.458;2022-07-29T08:18:10;8.13;;;6.85;;
52316;SDS011;38725;41.994;21.458;2022-07-29T08:20:37;8.02;;;5.90;;
52316;SDS011;38725;41.994;21.458;2022-07-29T08:23:04;10.73;;;6.90;;
52316;SDS011;38725;41.994;21.458;2022-07-29T08:25:31;6.50;;;5.80;;
52316;SDS011;38725;41.994;21.458;2022-07-29T08:27:57;9.80;;;7.25;;
52316;SDS011;38725;41.994;21.458;2022-07-29T08:30:24;11.43;;;6.22;;
52316;SDS011;38725;41.994;21.458;2022-07-29T08:32:50;8.00;;;6.35;;
52316;SDS011;38725;41.994;21.458;2022-07-29T08:35:18;6.32;;;5.55;;
52316;SDS011;38725;41.994;21.458;2022-07-29T08:37:44;8.05;;;6.15;;
52316;SDS011;38725;41.994;21.458;2022-07-29T08:40:11;5.95;;;5.35;;
52316;SDS011;38725;41.994;21.458;2022-07-29T08:42:37;7.30;;;5.88;;
52316;SDS011;38725;41.994;21.458;2022-07-29T08:45:04;6.43;;;5.75;;
52316;SDS011;38725;41.994;21.458;2022-07-29T08:47:30;7.82;;;6.18;;
52316;SDS011;38725;41.994;21.458;2022-07-29T08:49:56;16.00;;;5.80;;
52316;SDS011;38725;41.994;21.458;2022-07-29T08:52:25;11.90;;;6.25;;
52316;SDS011;38725;41.994;21.458;2022-07-29T08:54:52;9.75;;;6.50;;
52316;SDS011;38725;41.994;21.458;2022-07-29T08:57:19;8.82;;;5.65;;
52316;SDS011;38725;41.994;21.458;2022-07-29T08:59:46;7.47;;;5.97;;
52316;SDS011;38725;41.994;21.458;2022-07-29T09:02:16;9.75;;;6.68;;
52316;SDS011;38725;41.994;21.458;2022-07-29T09:04:44;7.95;;;5.93;;
52316;SDS011;38725;41.994;21.458;2022-07-29T09:07:11;6.45;;;5.53;;
52316;SDS011;38725;41.994;21.458;2022-07-29T09:09:40;7.00;;;5.63;;
52316;SDS011;38725;41.994;21.458;2022-07-29T09:12:06;10.65;;;5.72;;
52316;SDS011;38725;41.994;21.458;2022-07-29T09:14:33;6.25;;;5.65;;
52316;SDS011;38725;41.994;21.458;2022-07-29T09:16:59;7.15;;;5.65;;
52316;SDS011;38725;41.994;21.458;2022-07-29T09:19:33;8.43;;;5.45;;
52316;SDS011;38725;41.994;21.458;2022-07-29T09:22:03;7.60;;;5.65;;
52316;SDS011;38725;41.994;21.458;2022-07-29T09:26:59;6.78;;;5.40;;
52316;SDS011;38725;41.994;21.458;2022-07-29T09:29:25;8.40;;;5.70;;
52316;SDS011;38725;41.994;21.458;2022-07-29T09:31:52;10.52;;;6.07;;
52316;SDS011;38725;41.994;21.458;2022-07-29T09:34:25;6.97;;;5.97;;
52316;SDS011;38725;41.994;21.458;2022-07-29T09:36:53;6.50;;;5.88;;
52316;SDS011;38725;41.994;21.458;2022-07-29T09:39:28;6.70;;;6.00;;
52316;SDS011;38725;41.994;21.458;2022-07-29T09:41:55;8.18;;;5.75;;
52316;SDS011;38725;41.994;21.458;2022-07-29T09:44:22;5.78;;;5.20;;
52316;SDS011;38725;41.994;21.458;2022-07-29T09:46:53;7.00;;;5.70;;
52316;SDS011;38725;41.994;21.458;2022-07-29T09:49:19;8.18;;;5.90;;
52316;SDS011;38725;41.994;21.458;2022-07-29T09:51:46;8.10;;;5.65;;
52316;SDS011;38725;41.994;21.458;2022-07-29T09:56:48;12.07;;;5.88;;
52316;SDS011;38725;41.994;21.458;2022-07-29T09:59:14;15.60;;;6.32;;
52316;SDS011;38725;41.994;21.458;2022-07-29T10:01:41;11.20;;;6.18;;
52316;SDS011;38725;41.994;21.458;2022-07-29T10:04:07;7.13;;;6.05;;
52316;SDS011;38725;41.994;21.458;2022-07-29T10:06:33;7.32;;;6.55;;
52316;SDS011;38725;41.994;21.458;2022-07-29T10:09:09;6.78;;;5.90;;
52316;SDS011;38725;41.994;21.458;2022-07-29T10:11:35;7.32;;;6.47;;
52316;SDS011;38725;41.994;21.458;2022-07-29T10:14:02;6.32;;;5.80;;
52316;SDS011;38725;41.994;21.458;2022-07-29T10:16:29;7.38;;;6.00;;
52316;SDS011;38725;41.994;21.458;2022-07-29T10:18:59;6.65;;;6.05;;
52316;SDS011;38725;41.994;21.458;2022-07-29T10:21:26;6.97;;;5.78;;
52316;SDS011;38725;41.994;21.458;2022-07-29T10:23:52;6.60;;;6.00;;
52316;SDS011;38725;41.994;21.458;2022-07-29T10:26:19;6.90;;;6.25;;
52316;SDS011;38725;41.994;21.458;2022-07-29T10:28:45;7.18;;;6.47;;
52316;SDS011;38725;41.994;21.458;2022-07-29T10:31:17;6.90;;;6.22;;
52316;SDS011;38725;41.994;21.458;2022-07-29T10:33:51;7.10;;;6.40;;
52316;SDS011;38725;41.994;21.458;2022-07-29T10:39:01;13.88;;;6.82;;
52316;SDS011;38725;41.994;21.458;2022-07-29T10:41:38;7.35;;;6.40;;
52316;SDS011;38725;41.994;21.458;2022-07-29T10:44:18;7.47;;;6.43;;
52316;SDS011;38725;41.994;21.458;2022-07-29T10:46:44;7.18;;;6.25;;
52316;SDS011;38725;41.994;21.458;2022-07-29T10:57:13;7.82;;;6.07;;
52316;SDS011;38725;41.994;21.458;2022-07-29T10:59:40;8.40;;;6.82;;
52316;SDS011;38725;41.994;21.458;2022-07-29T11:07:17;8.25;;;6.88;;
52316;SDS011;38725;41.994;21.458;2022-07-29T11:09:44;8.70;;;6.70;;
52316;SDS011;38725;41.994;21.458;2022-07-29T11:13:10;8.88;;;6.80;;
52316;SDS011;38725;41.994;21.458;2022-07-29T11:15:06;7.68;;;6.18;;
52316;SDS011;38725;41.994;21.458;2022-07-29T11:22:56;11.27;;;6.90;;
52316;SDS011;38725;41.994;21.458;2022-07-29T11:25:22;8.10;;;6.63;;
52316;SDS011;38725;41.994;21.458;2022-07-29T11:27:48;7.18;;;6.43;;
52316;SDS011;38725;41.994;21.458;2022-07-29T11:30:15;8.15;;;6.88;;
52316;SDS011;38725;41.994;21.458;2022-07-29T11:32:42;8.20;;;6.90;;
52316;SDS011;38725;41.994;21.458;2022-07-29T11:37:38;6.95;;;6.20;;
52316;SDS011;38725;41.994;21.458;2022-07-29T11:47:26;7.25;;;6.57;;
52316;SDS011;38725;41.994;21.458;2022-07-29T11:49:52;8.07;;;7.28;;
52316;SDS011;38725;41.994;21.458;2022-07-29T11:52:19;7.10;;;6.18;;
52316;SDS011;38725;41.994;21.458;2022-07-29T11:54:47;7.63;;;6.63;;
52316;SDS011;38725;41.994;21.458;2022-07-29T11:57:14;7.00;;;6.30;;
52316;SDS011;38725;41.994;21.458;2022-07-29T11:59:42;7.15;;;6.45;;
52316;SDS011;38725;41.994;21.458;2022-07-29T12:02:09;9.15;;;6.63;;
52316;SDS011;38725;41.994;21.458;2022-07-29T12:04:54;7.47;;;5.90;;
52316;SDS011;38725;41.994;21.458;2022-07-29T12:07:27;6.85;;;6.20;;
52316;SDS011;38725;41.994;21.458;2022-07-29T12:09:53;8.60;;;6.85;;
52316;SDS011;38725;41.994;21.458;2022-07-29T12:12:20;7.13;;;6.28;;
52316;SDS011;38725;41.994;21.458;2022-07-29T12:14:46;8.32;;;6.40;;
52316;SDS011;38725;41.994;21.458;2022-07-29T12:17:28;12.25;;;6.70;;
52316;SDS011;38725;41.994;21.458;2022-07-29T12:19:56;7.65;;;6.20;;
52316;SDS011;38725;41.994;21.458;2022-07-29T12:24:52;7.30;;;6.03;;
52316;SDS011;38725;41.994;21.458;2022-07-29T12:27:18;7.38;;;5.78;;
52316;SDS011;38725;41.994;21.458;2022-07-29T12:29:45;11.40;;;5.90;;
52316;SDS011;38725;41.994;21.458;2022-07-29T12:32:11;6.22;;;5.72;;
52316;SDS011;38725;41.994;21.458;2022-07-29T12:34:37;7.60;;;5.50;;
52316;SDS011;38725;41.994;21.458;2022-07-29T12:37:03;7.00;;;5.50;;
52316;SDS011;38725;41.994;21.458;2022-07-29T12:39:30;6.65;;;6.05;;
52316;SDS011;38725;41.994;21.458;2022-07-29T12:41:56;6.18;;;5.57;;
52316;SDS011;38725;41.994;21.458;2022-07-29T12:44:22;6.03;;;5.43;;
52316;SDS011;38725;41.994;21.458;2022-07-29T12:47:04;11.10;;;5.93;;
52316;SDS011;38725;41.994;21.458;2022-07-29T12:49:30;5.70;;;5.10;;
52316;SDS011;38725;41.994;21.458;2022-07-29T12:51:57;7.68;;;5.40;;
52316;SDS011;38725;41.994;21.458;2022-07-29T12:54:23;7.90;;;5.22;;
52316;SDS011;38725;41.994;21.458;2022-07-29T12:56:57;6.10;;;5.35;;
52316;SDS011;38725;41.994;21.458;2022-07-29T12:59:23;6.85;;;5.38;;
52316;SDS011;38725;41.994;21.458;2022-07-29T13:01:50;6.25;;;5.45;;
52316;SDS011;38725;41.994;21.458;2022-07-29T13:06:58;6.78;;;4.88;;
52316;SDS011;38725;41.994;21.458;2022-07-29T13:09:35;6.88;;;4.75;;
52316;SDS011;38725;41.994;21.458;2022-07-29T13:12:01;7.57;;;5.35;;
52316;SDS011;38725;41.994;21.458;2022-07-29T13:14:36;8.13;;;6.00;;
52316;SDS011;38725;41.994;21.458;2022-07-29T13:19:38;6.65;;;5.47;;
52316;SDS011;38725;41.994;21.458;2022-07-29T13:22:12;6.45;;;5.30;;
52316;SDS011;38725;41.994;21.458;2022-07-29T13:25:12;6.55;;;5.15;;
52316;SDS011;38725;41.994;21.458;2022-07-29T13:27:34;9.30;;;5.38;;
52316;SDS011;38725;41.994;21.458;2022-07-29T13:30:02;15.65;;;6.22;;
52316;SDS011;38725;41.994;21.458;2022-07-29T13:32:29;9.45;;;5.55;;
52316;SDS011;38725;41.994;21.458;2022-07-29T13:34:56;9.57;;;5.53;;
52316;SDS011;38725;41.994;21.458;2022-07-29T13:37:22;7.00;;;5.55;;
52316;SDS011;38725;41.994;21.458;2022-07-29T13:39:48;7.18;;;4.90;;
52316;SDS011;38725;41.994;21.458;2022-07-29T13:42:15;5.43;;;4.00;;
52316;SDS011;38725;41.994;21.458;2022-07-29T13:44:41;4.78;;;4.38;;
52316;SDS011;38725;41.994;21.458;2022-07-29T13:47:07;7.63;;;4.88;;
52316;SDS011;38725;41.994;21.458;2022-07-29T13:49:34;7.35;;;3.63;;
52316;SDS011;38725;41.994;21.458;2022-07-29T13:52:00;7.60;;;3.92;;
52316;SDS011;38725;41.994;21.458;2022-07-29T13:54:28;3.92;;;3.58;;
52316;SDS011;38725;41.994;21.458;2022-07-29T13:56:54;4.97;;;3.83;;
52316;SDS011;38725;41.994;21.458;2022-07-29T13:59:20;5.20;;;4.20;;
52316;SDS011;38725;41.994;21.458;2022-07-29T14:01:46;15.15;;;6.03;;
52316;SDS011;38725;41.994;21.458;2022-07-29T14:04:12;4.82;;;4.32;;
52316;SDS011;38725;41.994;21.458;2022-07-29T14:06:39;6.03;;;4.30;;
52316;SDS011;38725;41.994;21.458;2022-07-29T14:09:05;4.68;;;4.18;;
52316;SDS011;38725;41.994;21.458;2022-07-29T14:11:31;4.47;;;4.03;;
52316;SDS011;38725;41.994;21.458;2022-07-29T14:13:57;5.88;;;4.32;;
52316;SDS011;38725;41.994;21.458;2022-07-29T14:16:24;6.03;;;4.38;;
52316;SDS011;38725;41.994;21.458;2022-07-29T14:18:50;4.93;;;4.43;;
52316;SDS011;38725;41.994;21.458;2022-07-29T14:21:16;5.78;;;4.38;;
52316;SDS011;38725;41.994;21.458;2022-07-29T14:23:42;6.15;;;4.10;;
52316;SDS011;38725;41.994;21.458;2022-07-29T14:26:08;4.75;;;3.83;;
52316;SDS011;38725;41.994;21.458;2022-07-29T14:28:34;5.22;;;4.05;;
52316;SDS011;38725;41.994;21.458;2022-07-29T14:31:00;6.28;;;4.30;;
52316;SDS011;38725;41.994;21.458;2022-07-29T14:33:27;5.32;;;4.82;;
52316;SDS011;38725;41.994;21.458;2022-07-29T14:35:53;5.40;;;4.85;;
52316;SDS011;38725;41.994;21.458;2022-07-29T14:38:19;4.78;;;4.18;;
52316;SDS011;38725;41.994;21.458;2022-07-29T14:40:45;5.32;;;4.75;;
52316;SDS011;38725;41.994;21.458;2022-07-29T14:43:12;5.30;;;4.03;;
52316;SDS011;38725;41.994;21.458;2022-07-29T14:45:38;7.65;;;4.22;;
52316;SDS011;38725;41.994;21.458;2022-07-29T14:48:05;6.47;;;4.70;;
52316;SDS011;38725;41.994;21.458;2022-07-29T14:50:31;8.60;;;4.78;;
52316;SDS011;38725;41.994;21.458;2022-07-29T14:52:58;6.97;;;4.50;;
52316;SDS011;38725;41.994;21.458;2022-07-29T14:55:24;5.18;;;4.35;;
52316;SDS011;38725;41.994;21.458;2022-07-29T14:57:50;6.28;;;4.47;;
52316;SDS011;38725;41.994;21.458;2022-07-29T15:00:16;5.75;;;4.53;;
52316;SDS011;38725;41.994;21.458;2022-07-29T15:02:43;6.93;;;4.50;;
52316;SDS011;38725;41.994;21.458;2022-07-29T15:05:09;6.15;;;4.50;;
52316;SDS011;38725;41.994;21.458;2022-07-29T15:07:35;5.68;;;4.63;;
52316;SDS011;38725;41.994;21.458;2022-07-29T15:10:02;9.77;;;4.97;;
52316;SDS011;38725;41.994;21.458;2022-07-29T15:12:29;6.35;;;4.97;;
52316;SDS011;38725;41.994;21.458;2022-07-29T15:14:55;6.40;;;4.57;;
52316;SDS011;38725;41.994;21.458;2022-07-29T15:17:22;6.30;;;5.20;;
52316;SDS011;38725;41.994;21.458;2022-07-29T15:19:48;6.07;;;4.80;;
52316;SDS011;38725;41.994;21.458;2022-07-29T15:22:14;8.18;;;5.93;;
52316;SDS011;38725;41.994;21.458;2022-07-29T15:24:40;7.63;;;4.90;;
52316;SDS011;38725;41.994;21.458;2022-07-29T15:27:06;7.30;;;4.80;;
52316;SDS011;38725;41.994;21.458;2022-07-29T15:29:39;7.88;;;5.60;;
52316;SDS011;38725;41.994;21.458;2022-07-29T15:32:05;7.97;;;6.13;;
52316;SDS011;38725;41.994;21.458;2022-07-29T15:34:31;8.45;;;6.70;;
52316;SDS011;38725;41.994;21.458;2022-07-29T15:36:57;8.05;;;7.25;;